Terminal Aerodrome Forecast
Issued by NWS

Home | Current Version | Previous Version | Text Only | Print | Product List | Glossary On
Versions: 1 2 3 4 5 6 7 8 9 10 11 12 13 14 15 16 17 18 19 20 21 22 23 24 25 26 27 28 29 30 31 32 33 34 35 36 37 38 39 40 41 42 43 44
000
FTUS43 KMKX 300146 AAA
TAFUES
TAF AMD
KUES 300146Z 3002/3024 18009KT P6SM SCT050 SCT100 BKN200
     FM300400 17010KT P6SM VCTS SCT035 BKN080CB
      TEMPO 3004/3007 5SM TSRA BKN035CB
     FM300700 19009KT P6SM VCTS SCT015 OVC035CB
      TEMPO 3007/3010 3SM TSRA BR SCT012 BKN030CB
     FM301000 20009KT 5SM -TSRA BR SCT008 OVC015CB
     FM301500 22010KT 6SM -SHRA OVC018
     FM301700 22010KT P6SM VCSH BKN025=

USA.gov is the U.S. government's official web portal to all federal, state and local government web resources and services.